Time;durP1;ratioP1;P1;durP2;ratioP2;P2;SDS_P1;SDS_P2;PMS_P1;PMS_P2;Temp;Humidity;BMP_temperature;BMP_pressure;BME280_temperature;BME280_humidity;BME280_pressure;Samples;Min_cycle;Max_cycle;Signal;HPM_P1;HPM_P2
2022/08/25 00:01:46;;;;;;;2.85;2.15;;;26.00;64.70;;;;;;4448001;32;20282;-71
2022/08/25 00:04:14;;;;;;;4.28;2.53;;;26.00;64.70;;;;;;4461738;32;20070;-71
2022/08/25 00:06:42;;;;;;;4.50;2.20;;;25.90;64.70;;;;;;4461841;32;20096;-71
2022/08/25 00:09:09;;;;;;;3.42;2.20;;;25.90;64.70;;;;;;4462162;32;20136;-71
2022/08/25 00:11:37;;;;;;;2.88;2.08;;;25.90;64.70;;;;;;4461885;32;20136;-71
2022/08/25 00:14:10;;;;;;;2.28;2.08;;;25.90;64.80;;;;;;4461903;32;20088;-71
2022/08/25 00:16:37;;;;;;;3.20;2.22;;;25.90;64.70;;;;;;4462277;32;20069;-71
2022/08/25 00:19:07;;;;;;;2.75;1.98;;;25.90;64.70;;;;;;4461844;32;20136;-72
2022/08/25 00:21:33;;;;;;;4.35;2.13;;;25.90;64.70;;;;;;4461871;32;20207;-71
2022/08/25 00:24:03;;;;;;;2.83;2.22;;;25.90;64.70;;;;;;4461697;32;20088;-71
2022/08/25 00:26:30;;;;;;;2.70;2.03;;;25.90;64.70;;;;;;4461528;32;20131;-71
2022/08/25 00:28:56;;;;;;;3.10;2.20;;;25.90;64.70;;;;;;4447738;32;20414;-71
2022/08/25 00:31:23;;;;;;;3.20;2.00;;;25.90;64.70;;;;;;4461547;32;20089;-71
2022/08/25 00:33:50;;;;;;;2.17;1.83;;;25.90;64.70;;;;;;4461383;32;20081;-71
2022/08/25 00:36:17;;;;;;;2.67;2.38;;;25.90;64.70;;;;;;4461830;32;20399;-71
2022/08/25 00:38:45;;;;;;;2.17;1.98;;;25.90;64.70;;;;;;4461531;32;20411;-71
2022/08/25 00:41:13;;;;;;;3.22;1.95;;;25.80;64.60;;;;;;4461679;32;20204;-71
2022/08/25 00:43:47;;;;;;;2.83;2.33;;;25.80;64.60;;;;;;4461466;32;20105;-71
2022/08/25 00:46:17;;;;;;;2.55;2.17;;;25.80;64.60;;;;;;4447564;32;20089;-71
2022/08/25 00:48:46;;;;;;;3.17;2.15;;;25.80;64.70;;;;;;4460906;32;20074;-71
2022/08/25 00:51:17;;;;;;;3.30;2.05;;;25.90;64.80;;;;;;4461311;32;20081;-71
2022/08/25 00:53:43;;;;;;;2.15;1.92;;;25.80;64.60;;;;;;4461350;32;20550;-72
2022/08/25 00:56:11;;;;;;;2.67;2.10;;;25.90;64.70;;;;;;4461451;32;20220;-71
2022/08/25 00:58:40;;;;;;;2.10;1.83;;;25.80;64.70;;;;;;4461192;32;20423;-71
2022/08/25 01:01:06;;;;;;;2.90;1.80;;;25.80;64.70;;;;;;4461335;32;20100;-72
2022/08/25 01:03:32;;;;;;;2.88;2.30;;;25.80;64.70;;;;;;4447433;32;20077;-71
2022/08/25 01:06:00;;;;;;;2.75;2.40;;;25.80;64.60;;;;;;4461115;32;20415;-71
2022/08/25 01:08:27;;;;;;;3.28;2.13;;;25.80;64.70;;;;;;4461058;32;20084;-71
2022/08/25 01:10:55;;;;;;;2.00;1.85;;;25.80;64.60;;;;;;4460868;32;20586;-71
2022/08/25 01:13:27;;;;;;;3.63;2.05;;;25.80;65.50;;;;;;4461269;32;20204;-71
2022/08/25 01:15:56;;;;;;;2.17;1.98;;;25.80;64.60;;;;;;4461275;32;20092;-71
2022/08/25 01:18:22;;;;;;;3.30;1.90;;;25.80;64.60;;;;;;4460787;32;20195;-71
2022/08/25 01:20:51;;;;;;;1.92;1.73;;;25.80;64.60;;;;;;4460941;32;20104;-71
2022/08/25 01:23:17;;;;;;;2.10;1.90;;;25.80;64.50;;;;;;4460651;32;20098;-71
2022/08/25 01:26:06;;;;;;;2.20;2.00;;;25.80;64.60;;;;;;4460933;32;20208;-71
2022/08/25 01:28:33;;;;;;;4.18;1.80;;;25.80;64.50;;;;;;4460886;32;20093;-71
2022/08/25 01:30:59;;;;;;;2.95;2.00;;;25.70;64.50;;;;;;4460371;32;20396;-71
2022/08/25 01:33:25;;;;;;;3.05;1.92;;;25.80;64.50;;;;;;4460702;32;20212;-71
2022/08/25 01:35:51;;;;;;;2.30;1.90;;;25.70;64.50;;;;;;4460815;32;20093;-71
2022/08/25 01:38:19;;;;;;;2.63;2.10;;;25.70;64.50;;;;;;4460143;32;20062;-71
2022/08/25 01:40:46;;;;;;;1.77;1.67;;;25.70;64.50;;;;;;4446588;32;20215;-71
2022/08/25 01:43:15;;;;;;;2.08;1.88;;;25.70;64.50;;;;;;4460751;32;20113;-71
2022/08/25 01:45:44;;;;;;;2.22;1.90;;;25.70;64.40;;;;;;4460590;32;20078;-71
2022/08/25 01:48:11;;;;;;;2.78;2.03;;;25.70;64.50;;;;;;4460540;32;20066;-71
2022/08/25 01:50:39;;;;;;;2.08;1.88;;;25.70;64.50;;;;;;4446423;32;20327;-71
2022/08/25 01:53:17;;;;;;;3.33;1.90;;;25.70;64.50;;;;;;4460542;32;20065;-71
2022/08/25 01:55:54;;;;;;;2.55;1.90;;;25.70;64.40;;;;;;4460366;32;20510;-71
2022/08/25 01:58:24;;;;;;;2.25;1.70;;;25.70;64.40;;;;;;4460788;32;20086;-72
2022/08/25 02:00:54;;;;;;;2.17;1.70;;;25.70;64.50;;;;;;4460105;32;20175;-71
2022/08/25 02:03:20;;;;;;;1.95;1.75;;;25.70;64.50;;;;;;4460508;32;20117;-72
2022/08/25 02:05:46;;;;;;;2.47;1.80;;;25.70;64.40;;;;;;4460824;32;20088;-71
2022/08/25 02:08:12;;;;;;;2.38;1.90;;;25.70;64.40;;;;;;4460386;32;20061;-71
2022/08/25 02:10:39;;;;;;;2.10;1.90;;;25.70;64.40;;;;;;4460385;32;20159;-72
2022/08/25 02:13:06;;;;;;;2.75;1.88;;;25.70;64.40;;;;;;4460398;32;20223;-71
2022/08/25 02:15:32;;;;;;;2.33;2.10;;;25.70;64.30;;;;;;4446107;32;20163;-71
2022/08/25 02:17:58;;;;;;;4.63;2.00;;;25.70;64.40;;;;;;4460198;32;20105;-71
2022/08/25 02:20:25;;;;;;;2.20;2.00;;;25.70;64.30;;;;;;4460347;32;20159;-71
2022/08/25 02:22:51;;;;;;;1.95;1.85;;;25.70;64.30;;;;;;4460336;32;20613;-71
2022/08/25 02:25:18;;;;;;;2.17;1.80;;;25.70;64.30;;;;;;4460325;32;20073;-71
2022/08/25 02:27:44;;;;;;;1.80;1.60;;;25.70;64.30;;;;;;4460149;32;20158;-72
2022/08/25 02:30:12;;;;;;;2.55;2.10;;;25.70;64.30;;;;;;4446167;32;20094;-72
2022/08/25 02:32:39;;;;;;;2.40;1.98;;;25.70;64.30;;;;;;4460272;32;20211;-71
2022/08/25 02:35:06;;;;;;;2.00;1.67;;;25.70;64.30;;;;;;4460044;32;20204;-71
2022/08/25 02:37:33;;;;;;;2.20;2.00;;;25.70;64.30;;;;;;4460182;32;20073;-71
2022/08/25 02:39:59;;;;;;;2.00;1.80;;;25.70;64.20;;;;;;4446007;32;20077;-71
2022/08/25 02:42:25;;;;;;;3.05;1.63;;;25.70;64.30;;;;;;4460276;32;20190;-71
2022/08/25 02:44:51;;;;;;;2.10;1.90;;;25.70;64.20;;;;;;4460022;32;20566;-71
2022/08/25 02:47:17;;;;;;;2.08;1.70;;;25.60;64.20;;;;;;4460162;32;20073;-71
2022/08/25 02:49:43;;;;;;;2.42;1.60;;;25.60;64.10;;;;;;4446587;32;20062;-71
2022/08/25 02:52:09;;;;;;;2.45;1.83;;;25.60;64.20;;;;;;4448924;32;20077;-71
2022/08/25 02:54:35;;;;;;;2.65;1.83;;;25.60;64.20;;;;;;4462844;32;20084;-71
2022/08/25 02:57:01;;;;;;;2.20;2.00;;;25.60;64.10;;;;;;4462912;32;20091;-71
2022/08/25 02:59:27;;;;;;;1.80;1.70;;;25.60;64.20;;;;;;4462831;32;20065;-71
2022/08/25 03:01:54;;;;;;;2.15;1.90;;;25.60;64.10;;;;;;4463064;32;20077;-71
2022/08/25 03:04:19;;;;;;;2.42;1.80;;;25.60;64.10;;;;;;4462749;32;20073;-71
2022/08/25 03:06:46;;;;;;;2.85;1.90;;;25.60;64.10;;;;;;4463087;32;20093;-72
2022/08/25 03:09:12;;;;;;;1.52;1.42;;;25.60;64.10;;;;;;4462958;32;20094;-71
2022/08/25 03:11:38;;;;;;;2.55;1.70;;;25.60;64.10;;;;;;4462652;32;20444;-71
2022/08/25 03:14:06;;;;;;;2.58;1.70;;;25.60;64.10;;;;;;4462525;32;20132;-71
2022/08/25 03:16:32;;;;;;;2.85;1.98;;;25.60;64.10;;;;;;4462807;32;20086;-71
2022/08/25 03:18:59;;;;;;;1.70;1.60;;;25.60;64.10;;;;;;4462813;32;20129;-71
2022/08/25 03:21:26;;;;;;;2.00;1.70;;;25.60;64.00;;;;;;4462592;32;20100;-71
2022/08/25 03:23:52;;;;;;;1.58;1.42;;;25.60;64.10;;;;;;4462676;32;20070;-71
2022/08/25 03:29:04;;;;;;;2.63;1.98;;;25.60;64.10;;;;;;4462899;32;20078;-71
2022/08/25 03:31:31;;;;;;;2.75;1.85;;;25.50;64.00;;;;;;4462392;32;20085;-71
2022/08/25 03:33:58;;;;;;;1.88;1.40;;;25.50;64.00;;;;;;4462214;32;20108;-71
2022/08/25 03:36:25;;;;;;;1.70;1.60;;;25.50;64.00;;;;;;4462446;32;20163;-71
2022/08/25 03:38:52;;;;;;;1.85;1.63;;;25.50;64.00;;;;;;4462378;32;20098;-71
2022/08/25 03:41:26;;;;;;;1.67;1.58;;;25.50;64.00;;;;;;4462607;32;20102;-71
2022/08/25 03:43:52;;;;;;;1.88;1.75;;;25.50;63.90;;;;;;4462590;32;20066;-71
2022/08/25 03:46:21;;;;;;;1.77;1.67;;;25.50;63.90;;;;;;4462225;32;20203;-71
2022/08/25 03:48:48;;;;;;;1.77;1.67;;;25.50;63.90;;;;;;4462171;32;20069;-71
2022/08/25 03:51:29;;;;;;;1.90;1.45;;;25.50;63.90;;;;;;4462133;32;20088;-71
2022/08/25 03:53:57;;;;;;;1.88;1.77;;;25.50;63.90;;;;;;4462273;32;20219;-71
2022/08/25 03:56:22;;;;;;;1.90;1.70;;;25.50;63.90;;;;;;4462067;32;20093;-71
2022/08/25 03:58:48;;;;;;;2.28;1.70;;;25.50;63.90;;;;;;4448252;32;20125;-72
2022/08/25 04:01:15;;;;;;;1.95;1.80;;;25.50;63.90;;;;;;4461768;32;20174;-71
2022/08/25 04:03:42;;;;;;;2.28;1.80;;;25.50;63.90;;;;;;4447992;32;20088;-71
2022/08/25 04:06:08;;;;;;;2.33;1.70;;;25.50;63.90;;;;;;4461944;32;20235;-71
2022/08/25 04:08:35;;;;;;;1.80;1.70;;;25.50;63.90;;;;;;4462030;32;20507;-71
2022/08/25 04:11:07;;;;;;;1.70;1.55;;;25.50;63.90;;;;;;4461887;32;20069;-71
2022/08/25 04:13:33;;;;;;;2.67;1.70;;;25.50;63.90;;;;;;4462225;32;20669;-71
2022/08/25 04:15:58;;;;;;;2.33;1.95;;;25.50;63.90;;;;;;4447683;32;20119;-71
2022/08/25 04:18:24;;;;;;;1.70;1.60;;;25.40;63.80;;;;;;4461412;32;20066;-71
2022/08/25 04:21:00;;;;;;;2.65;1.73;;;25.40;63.80;;;;;;4461803;32;20077;-70
2022/08/25 04:23:25;;;;;;;2.05;1.70;;;25.40;63.80;;;;;;4461927;32;20396;-71
2022/08/25 04:25:51;;;;;;;2.38;1.85;;;25.40;63.80;;;;;;4462050;32;20251;-71
2022/08/25 04:28:17;;;;;;;3.10;1.98;;;25.40;63.80;;;;;;4461434;32;20495;-71
2022/08/25 04:30:43;;;;;;;2.95;1.70;;;25.40;63.80;;;;;;4461708;32;20117;-71
2022/08/25 04:33:09;;;;;;;2.00;1.80;;;25.40;63.80;;;;;;4461662;32;20380;-71
2022/08/25 04:35:35;;;;;;;2.03;1.77;;;25.40;63.80;;;;;;4461658;32;20216;-72
2022/08/25 04:38:01;;;;;;;1.70;1.60;;;25.40;63.70;;;;;;4461562;32;20219;-71
2022/08/25 04:40:27;;;;;;;2.00;1.80;;;25.40;63.80;;;;;;4461357;32;20086;-71
2022/08/25 04:42:53;;;;;;;2.00;1.90;;;25.40;63.80;;;;;;4447701;32;20388;-71
2022/08/25 04:45:18;;;;;;;1.70;1.60;;;25.40;63.70;;;;;;4461290;32;20110;-71
2022/08/25 04:47:44;;;;;;;1.90;1.70;;;25.40;63.70;;;;;;4461672;32;20131;-71
2022/08/25 04:50:10;;;;;;;1.80;1.70;;;25.40;63.80;;;;;;4461286;32;20466;-71
2022/08/25 04:52:36;;;;;;;3.20;1.73;;;25.40;63.70;;;;;;4461385;32;20195;-72
2022/08/25 04:55:02;;;;;;;2.65;2.10;;;25.40;63.70;;;;;;4460937;32;20121;-72
2022/08/25 04:57:29;;;;;;;3.45;1.83;;;25.40;63.80;;;;;;4461340;32;20086;-71
2022/08/25 04:59:55;;;;;;;1.92;1.60;;;25.40;63.70;;;;;;4461184;32;20191;-71
2022/08/25 05:02:24;;;;;;;3.38;1.40;;;25.40;63.80;;;;;;4447090;32;20504;-71
2022/08/25 05:04:50;;;;;;;2.00;1.80;;;25.40;63.70;;;;;;4461214;32;20402;-71
2022/08/25 05:07:16;;;;;;;1.80;1.70;;;25.40;63.70;;;;;;4461151;32;20503;-71
2022/08/25 05:09:42;;;;;;;2.38;1.92;;;25.40;63.70;;;;;;4447001;32;20219;-71
2022/08/25 05:12:08;;;;;;;2.22;1.85;;;25.30;63.60;;;;;;4461305;32;20117;-71
2022/08/25 05:14:34;;;;;;;1.85;1.50;;;25.30;63.70;;;;;;4460345;32;20116;-71
2022/08/25 05:17:00;;;;;;;2.80;1.80;;;25.30;63.60;;;;;;4460990;32;20521;-71
2022/08/25 05:19:26;;;;;;;2.05;1.80;;;25.30;63.70;;;;;;4460810;32;20101;-71
2022/08/25 05:21:52;;;;;;;1.65;1.40;;;25.30;63.60;;;;;;4461339;32;20077;-71
2022/08/25 05:24:19;;;;;;;1.70;1.60;;;25.30;63.70;;;;;;4460510;32;20235;-71
2022/08/25 05:26:45;;;;;;;2.15;1.80;;;25.30;63.60;;;;;;4460780;32;20417;-71
2022/08/25 05:29:10;;;;;;;3.45;2.22;;;25.40;63.70;;;;;;4446959;32;20121;-71
2022/08/25 05:31:36;;;;;;;2.55;1.60;;;25.30;63.60;;;;;;4460869;32;20396;-71
2022/08/25 05:34:07;;;;;;;1.95;1.80;;;25.30;63.60;;;;;;4460735;32;20175;-71
2022/08/25 05:36:33;;;;;;;2.65;1.83;;;25.30;63.60;;;;;;4460894;32;20179;-71
2022/08/25 05:38:59;;;;;;;1.75;1.65;;;25.30;63.60;;;;;;4460757;32;20500;-72
2022/08/25 05:41:28;;;;;;;2.28;1.73;;;25.30;63.60;;;;;;4460415;32;20396;-71
2022/08/25 05:43:54;;;;;;;1.60;1.50;;;25.30;63.60;;;;;;4460814;32;20077;-72
2022/08/25 05:46:21;;;;;;;2.45;1.90;;;25.30;63.60;;;;;;4460977;32;20062;-71
2022/08/25 05:48:47;;;;;;;2.33;2.08;;;25.30;63.60;;;;;;4460541;32;20078;-71
2022/08/25 05:51:14;;;;;;;1.95;1.60;;;25.30;63.70;;;;;;4446314;32;20132;-71
2022/08/25 05:53:43;;;;;;;2.15;1.95;;;25.30;63.60;;;;;;4460550;32;20085;-72
2022/08/25 05:56:09;;;;;;;2.17;1.92;;;25.30;64.50;;;;;;4460428;32;20132;-71
2022/08/25 05:58:36;;;;;;;2.47;1.77;;;25.30;63.60;;;;;;4460521;32;20096;-70
2022/08/25 06:03:48;;;;;;;2.17;1.60;;;25.30;63.60;;;;;;4448713;32;20085;-71
2022/08/25 06:06:15;;;;;;;2.90;2.08;;;25.30;63.60;;;;;;4446802;32;20099;-71
2022/08/25 06:08:43;;;;;;;4.47;2.10;;;25.30;63.40;;;;;;4460712;32;20085;-71
2022/08/25 06:11:10;;;;;;;4.93;2.42;;;25.30;62.90;;;;;;4460521;32;20132;-71
2022/08/25 06:13:36;;;;;;;4.55;2.80;;;25.30;62.50;;;;;;4446246;32;20081;-71
2022/08/25 06:16:02;;;;;;;3.20;2.72;;;25.30;62.00;;;;;;4446683;32;20196;-72
2022/08/25 06:18:27;;;;;;;5.35;2.92;;;25.30;61.80;;;;;;4460202;32;20090;-71
2022/08/25 06:20:53;;;;;;;4.70;2.95;;;25.30;61.70;;;;;;4460409;32;20152;-72
2022/08/25 06:23:19;;;;;;;8.23;3.38;;;25.30;61.60;;;;;;4460378;32;20066;-72
2022/08/25 06:25:50;;;;;;;4.43;3.28;;;25.30;61.30;;;;;;4462387;32;20070;-72
2022/08/25 06:28:15;;;;;;;5.18;3.53;;;25.30;61.10;;;;;;4463610;32;20077;-71
2022/08/25 06:30:41;;;;;;;9.18;3.67;;;25.30;60.90;;;;;;4449560;32;20095;-71
2022/08/25 06:33:07;;;;;;;7.97;3.72;;;25.30;60.70;;;;;;4463156;32;20069;-71
2022/08/25 06:35:33;;;;;;;9.75;3.67;;;25.30;60.80;;;;;;4463264;32;20163;-71
2022/08/25 06:37:59;;;;;;;4.60;3.08;;;25.30;60.80;;;;;;4436552;32;20124;-72
2022/08/25 06:40:25;;;;;;;8.65;4.00;;;25.30;60.80;;;;;;4462809;32;20498;-71
2022/08/25 06:42:50;;;;;;;7.53;3.30;;;25.40;60.70;;;;;;4463344;32;20203;-72
2022/08/25 06:45:17;;;;;;;11.38;4.40;;;25.30;60.70;;;;;;4463583;32;20483;-71
2022/08/25 06:47:43;;;;;;;7.43;3.92;;;25.40;60.60;;;;;;4463247;32;20097;-72
2022/08/25 06:50:09;;;;;;;10.38;3.63;;;25.40;60.60;;;;;;4463219;32;20106;-72
2022/08/25 06:52:36;;;;;;;11.15;4.00;;;25.40;60.60;;;;;;4463470;32;20096;-71
2022/08/25 06:55:02;;;;;;;11.38;4.20;;;25.40;60.40;;;;;;4463100;32;20519;-71
2022/08/25 06:57:28;;;;;;;9.75;4.30;;;25.40;60.20;;;;;;4463120;32;20113;-71
2022/08/25 06:59:54;;;;;;;12.55;4.20;;;25.40;60.10;;;;;;4463097;32;20092;-71
2022/08/25 07:02:20;;;;;;;7.07;3.72;;;25.40;60.00;;;;;;4463309;32;20163;-71
2022/08/25 07:04:46;;;;;;;5.47;4.50;;;25.40;59.80;;;;;;4462729;32;20136;-72
2022/08/25 07:07:12;;;;;;;7.47;4.13;;;25.50;59.70;;;;;;4463037;32;20090;-71
2022/08/25 07:09:38;;;;;;;9.15;4.50;;;25.50;59.70;;;;;;4463036;32;20120;-71
2022/08/25 07:12:04;;;;;;;8.45;3.83;;;25.50;59.50;;;;;;4463136;32;20062;-72
2022/08/25 07:14:30;;;;;;;8.00;4.80;;;25.50;59.50;;;;;;4462871;32;20529;-72
2022/08/25 07:16:56;;;;;;;10.57;4.20;;;25.50;59.40;;;;;;4462741;32;20097;-71
2022/08/25 07:19:22;;;;;;;13.82;4.40;;;25.50;59.40;;;;;;4462314;32;20096;-73
2022/08/25 07:21:51;;;;;;;7.97;3.65;;;25.50;59.40;;;;;;4462559;32;20073;-72
2022/08/25 07:24:17;;;;;;;7.30;3.78;;;25.50;59.30;;;;;;4462914;32;20096;-71
2022/08/25 07:26:45;;;;;;;5.47;4.28;;;25.60;59.40;;;;;;4462675;32;20092;-72
2022/08/25 07:29:13;;;;;;;7.65;3.88;;;25.50;59.30;;;;;;4462558;32;20179;-72
2022/08/25 07:31:40;;;;;;;7.28;3.88;;;25.50;59.20;;;;;;4462710;32;20093;-72
2022/08/25 07:36:51;;;;;;;8.02;4.10;;;25.60;59.20;;;;;;4462143;32;20211;-71
2022/08/25 07:39:17;;;;;;;9.38;4.30;;;25.60;59.30;;;;;;4462635;32;20084;-72
2022/08/25 07:41:43;;;;;;;9.48;3.90;;;25.60;59.20;;;;;;4462219;32;20148;-72
2022/08/25 07:44:10;;;;;;;6.65;3.67;;;25.60;59.10;;;;;;4462711;32;20577;-72
2022/08/25 07:46:36;;;;;;;7.90;4.07;;;25.60;59.90;;;;;;4462368;32;20066;-72
2022/08/25 07:49:04;;;;;;;4.95;3.55;;;25.60;58.90;;;;;;4462231;32;20499;-73
2022/08/25 07:51:30;;;;;;;7.20;3.45;;;25.60;58.70;;;;;;4462186;32;20092;-72
2022/08/25 07:53:56;;;;;;;6.07;3.65;;;25.60;58.50;;;;;;4462093;32;20090;-72
2022/08/25 07:56:22;;;;;;;7.55;3.72;;;25.70;58.50;;;;;;4462120;32;20160;-73
2022/08/25 07:58:48;;;;;;;5.32;3.85;;;25.70;58.30;;;;;;4462178;32;20368;-72
2022/08/25 08:01:22;;;;;;;7.10;3.63;;;25.70;58.30;;;;;;4462363;32;20187;-73
2022/08/25 08:03:48;;;;;;;7.20;3.47;;;25.70;58.30;;;;;;4462193;32;20096;-72
2022/08/25 08:06:18;;;;;;;8.68;3.72;;;25.70;58.30;;;;;;4462080;32;20078;-72
2022/08/25 08:08:48;;;;;;;8.68;3.85;;;25.70;58.30;;;;;;4462140;32;20094;-72
2022/08/25 08:11:43;;;;;;;7.65;4.13;;;25.70;58.30;;;;;;4461874;32;20088;-72
2022/08/25 08:14:10;;;;;;;8.18;3.85;;;25.70;58.30;;;;;;4460333;32;20571;-72
2022/08/25 08:16:37;;;;;;;8.07;3.97;;;25.70;58.30;;;;;;4462017;32;20104;-71
2022/08/25 08:19:03;;;;;;;6.65;3.60;;;25.70;58.30;;;;;;4461569;32;20621;-72
2022/08/25 08:21:33;;;;;;;5.45;3.80;;;25.70;58.30;;;;;;4461647;32;20140;-72
2022/08/25 08:23:59;;;;;;;5.05;3.70;;;25.80;58.60;;;;;;4461869;32;20278;-72
2022/08/25 08:26:27;;;;;;;5.32;3.95;;;25.80;58.40;;;;;;4461534;32;20235;-71
2022/08/25 08:28:53;;;;;;;7.88;3.95;;;25.80;58.40;;;;;;4461837;32;20113;-71
2022/08/25 08:31:21;;;;;;;10.18;4.47;;;25.80;58.20;;;;;;4461819;32;20562;-71
2022/08/25 08:33:48;;;;;;;7.72;4.28;;;25.80;57.90;;;;;;4461652;32;20089;-71
2022/08/25 08:36:14;;;;;;;6.82;4.50;;;25.90;58.00;;;;;;4461985;32;20211;-72
2022/08/25 08:38:42;;;;;;;4.63;3.85;;;25.90;58.00;;;;;;4461360;32;20062;-72
2022/08/25 08:44:21;;;;;;;19.23;4.45;;;25.90;58.00;;;;;;4461582;32;20077;-75
2022/08/25 08:47:03;;;;;;;5.70;4.18;;;25.90;58.00;;;;;;4461672;32;20096;-75
2022/08/25 08:49:42;;;;;;;6.63;4.30;;;25.90;58.00;;;;;;4461352;32;20101;-75
2022/08/25 08:52:10;;;;;;;8.88;4.07;;;25.90;59.00;;;;;;4461493;32;20224;-75
2022/08/25 08:54:38;;;;;;;6.30;4.32;;;25.90;58.10;;;;;;4461329;32;20076;-75
2022/08/25 08:57:15;;;;;;;6.13;4.28;;;25.90;58.20;;;;;;4461366;32;20089;-74
2022/08/25 08:59:52;;;;;;;9.60;4.30;;;25.90;58.10;;;;;;4461354;32;20403;-74
2022/08/25 09:02:32;;;;;;;7.05;4.25;;;25.90;58.10;;;;;;4461357;32;20522;-75
2022/08/25 09:05:02;;;;;;;7.18;4.47;;;26.00;58.00;;;;;;4461379;32;20089;-75
2022/08/25 09:07:38;;;;;;;11.60;4.18;;;26.00;58.10;;;;;;4461373;32;20073;-75
2022/08/25 09:10:05;;;;;;;8.30;4.03;;;26.00;58.10;;;;;;4461283;32;20065;-75
2022/08/25 09:12:53;;;;;;;6.75;3.53;;;26.00;58.10;;;;;;4446806;32;20081;-75
2022/08/25 09:18:28;;;;;;;5.63;3.85;;;26.00;58.10;;;;;;4461408;32;20120;-75
2022/08/25 09:21:10;;;;;;;5.03;3.88;;;26.00;58.00;;;;;;4461459;32;20132;-75
2022/08/25 09:24:12;;;;;;;6.65;3.65;;;26.00;57.90;;;;;;4461365;32;20074;-75
2022/08/25 09:26:51;;;;;;;7.18;3.78;;;26.00;57.90;;;;;;4461099;32;20077;-75
2022/08/25 09:29:26;;;;;;;8.27;3.55;;;26.00;57.90;;;;;;4460953;32;20088;-74
2022/08/25 09:31:57;;;;;;;7.95;3.65;;;26.10;57.90;;;;;;4446952;32;20065;-74
2022/08/25 09:34:32;;;;;;;8.73;3.40;;;26.10;57.80;;;;;;4446794;32;20097;-75
2022/08/25 09:36:59;;;;;;;6.88;3.83;;;26.10;57.60;;;;;;4461149;32;20073;-75
2022/08/25 09:39:24;;;;;;;8.00;3.78;;;26.10;57.40;;;;;;4460570;32;20085;-74
2022/08/25 09:41:54;;;;;;;7.57;3.92;;;26.20;57.30;;;;;;4446467;32;20065;-75
2022/08/25 09:44:26;;;;;;;6.03;3.58;;;26.20;57.00;;;;;;4446795;32;20074;-74
2022/08/25 09:47:04;;;;;;;7.18;3.33;;;26.30;56.90;;;;;;4460686;32;20074;-74
2022/08/25 09:50:00;;;;;;;7.32;3.35;;;26.30;56.90;;;;;;4460510;32;20089;-75
2022/08/25 09:52:32;;;;;;;5.35;3.47;;;26.30;56.90;;;;;;4444392;32;20407;-74
2022/08/25 09:55:07;;;;;;;7.72;3.47;;;26.30;56.80;;;;;;4460319;32;20218;-75
2022/08/25 09:57:43;;;;;;;4.25;3.30;;;26.30;56.50;;;;;;4460885;32;20519;-75
2022/08/25 10:00:13;;;;;;;11.13;3.65;;;26.40;56.50;;;;;;4460206;32;20105;-78
2022/08/25 10:02:41;;;;;;;5.50;3.28;;;26.40;56.00;;;;;;4460380;32;20097;-74
2022/08/25 10:05:23;;;;;;;4.47;3.13;;;26.40;55.90;;;;;;4460477;32;20204;-74
2022/08/25 10:07:53;;;;;;;4.43;3.15;;;26.40;55.90;;;;;;4460598;32;20080;-74
2022/08/25 10:10:37;;;;;;;8.50;3.25;;;26.40;56.00;;;;;;4460413;32;20149;-73
2022/08/25 10:13:17;;;;;;;12.57;3.47;;;26.40;56.10;;;;;;4460674;32;20066;-74
2022/08/25 10:15:44;;;;;;;13.63;3.53;;;26.40;55.80;;;;;;4460627;32;20073;-74
2022/08/25 10:18:28;;;;;;;4.18;3.20;;;26.50;55.60;;;;;;4460263;32;20078;-74
2022/08/25 10:21:12;;;;;;;8.38;3.60;;;26.50;55.40;;;;;;4446695;32;20526;-73
2022/08/25 10:23:44;;;;;;;11.40;3.40;;;26.50;55.20;;;;;;4460444;32;20078;-73
2022/08/25 10:26:21;;;;;;;7.80;2.95;;;26.60;55.30;;;;;;4460194;32;20085;-72
2022/08/25 10:29:03;;;;;;;9.88;3.08;;;26.60;55.20;;;;;;4446176;32;20136;-73
2022/08/25 10:31:58;;;;;;;4.25;2.50;;;26.60;55.10;;;;;;4460445;32;20247;-73
2022/08/25 10:34:39;;;;;;;8.60;2.67;;;26.60;55.20;;;;;;4458308;32;20535;-73
2022/08/25 10:37:14;;;;;;;7.80;3.00;;;26.60;55.10;;;;;;4460400;32;20228;-74
2022/08/25 10:39:51;;;;;;;10.80;2.92;;;26.60;54.90;;;;;;4459775;32;20098;-73
2022/08/25 10:42:33;;;;;;;5.78;2.72;;;26.60;54.50;;;;;;4461389;32;20077;-74
2022/08/25 10:48:01;;;;;;;8.07;2.97;;;26.60;54.60;;;;;;4460372;32;20092;-70
2022/08/25 10:50:41;;;;;;;6.55;2.83;;;26.60;54.80;;;;;;4460453;32;20081;-69
2022/08/25 10:53:23;;;;;;;4.57;2.95;;;26.60;55.10;;;;;;4460301;32;20255;-70
2022/08/25 10:56:16;;;;;;;5.05;2.80;;;26.60;55.30;;;;;;4460019;32;20177;-70
2022/08/25 10:59:08;;;;;;;4.80;3.00;;;26.50;55.50;;;;;;4460321;32;20496;-70
2022/08/25 11:01:59;;;;;;;9.38;3.22;;;26.50;56.60;;;;;;4451722;32;20077;-70
2022/08/25 11:04:35;;;;;;;5.78;2.60;;;26.50;55.90;;;;;;4460110;32;20072;-70
2022/08/25 11:07:13;;;;;;;8.45;2.92;;;26.40;55.90;;;;;;4459828;32;20204;-70
2022/08/25 11:09:43;;;;;;;4.82;2.80;;;26.40;56.10;;;;;;4460145;32;20121;-70
2022/08/25 11:12:18;;;;;;;6.00;2.92;;;26.40;56.30;;;;;;4462029;32;20139;-70
2022/08/25 11:14:55;;;;;;;6.53;2.95;;;26.30;56.30;;;;;;4462688;32;20499;-70
2022/08/25 11:17:24;;;;;;;6.65;2.72;;;26.30;56.40;;;;;;4462696;32;20097;-70
2022/08/25 11:19:59;;;;;;;4.95;2.72;;;26.30;56.50;;;;;;4462652;32;20497;-70
2022/08/25 11:22:38;;;;;;;3.83;2.85;;;26.30;56.70;;;;;;4462814;32;20125;-70
2022/08/25 11:25:16;;;;;;;4.93;2.88;;;26.30;56.80;;;;;;4448641;32;20062;-70
2022/08/25 11:28:19;;;;;;;4.07;2.40;;;26.30;56.90;;;;;;4462544;32;20081;-71
2022/08/25 11:30:46;;;;;;;7.80;3.13;;;26.30;56.90;;;;;;4462399;32;20074;-71
2022/08/25 11:33:16;;;;;;;6.40;2.45;;;26.30;57.10;;;;;;4462578;32;20121;-71
2022/08/25 11:35:50;;;;;;;4.18;2.85;;;26.20;57.00;;;;;;4461967;32;20082;-71
2022/08/25 11:38:40;;;;;;;6.40;2.72;;;26.20;57.10;;;;;;4462035;32;20087;-70
2022/08/25 11:41:34;;;;;;;3.78;2.83;;;26.30;57.20;;;;;;4462202;32;20434;-70
2022/08/25 11:44:12;;;;;;;3.13;2.38;;;26.20;57.20;;;;;;4462351;32;20066;-70
2022/08/25 11:47:16;;;;;;;4.20;2.95;;;26.20;57.40;;;;;;4461870;32;20600;-70
2022/08/25 11:50:22;;;;;;;4.85;2.75;;;26.20;57.40;;;;;;4437972;32;20171;-70
2022/08/25 11:52:55;;;;;;;4.60;2.53;;;26.20;57.50;;;;;;4462667;32;20384;-70
2022/08/25 11:55:29;;;;;;;4.88;2.95;;;26.30;57.60;;;;;;4462616;32;20228;-70
2022/08/25 11:58:29;;;;;;;4.57;2.55;;;26.20;57.50;;;;;;4462307;32;20062;-71
2022/08/25 12:00:57;;;;;;;3.22;2.78;;;26.20;57.60;;;;;;4462604;32;20218;-70
2022/08/25 12:03:34;;;;;;;7.32;2.65;;;26.20;57.60;;;;;;4462204;32;20078;-69
2022/08/25 12:06:17;;;;;;;4.88;2.63;;;26.30;57.70;;;;;;4461990;32;20511;-70
2022/08/25 12:09:12;;;;;;;5.40;2.77;;;26.20;57.80;;;;;;4462264;32;20065;-71
2022/08/25 12:11:38;;;;;;;6.75;3.03;;;26.30;57.70;;;;;;4461939;32;20165;-67
2022/08/25 12:14:21;;;;;;;3.75;2.95;;;26.30;57.40;;;;;;4462298;32;20151;-71
2022/08/25 12:16:56;;;;;;;7.10;3.30;;;26.40;56.80;;;;;;4462383;32;20166;-71
2022/08/25 12:19:34;;;;;;;5.35;2.95;;;26.50;56.50;;;;;;4461984;32;20537;-72
2022/08/25 12:22:02;;;;;;;6.65;3.05;;;26.50;56.30;;;;;;4462019;32;20121;-71
2022/08/25 12:24:43;;;;;;;9.85;3.10;;;26.60;55.60;;;;;;4461236;32;20073;-71
2022/08/25 12:27:22;;;;;;;4.95;3.17;;;26.60;55.10;;;;;;4461915;32;20082;-71
2022/08/25 12:29:56;;;;;;;4.78;3.15;;;26.70;54.90;;;;;;4461696;32;20191;-70
2022/08/25 12:33:01;;;;;;;3.50;3.00;;;26.70;54.50;;;;;;4461784;32;20518;-71
2022/08/25 12:35:37;;;;;;;4.07;3.55;;;26.70;54.40;;;;;;4461823;32;20082;-71
2022/08/25 12:38:25;;;;;;;4.63;3.40;;;26.80;54.40;;;;;;4461832;32;20203;-71
2022/08/25 12:41:06;;;;;;;5.97;3.50;;;26.80;54.30;;;;;;4461483;32;20204;-71
2022/08/25 12:43:36;;;;;;;8.48;3.58;;;26.90;54.00;;;;;;4461674;32;20531;-71
2022/08/25 12:46:28;;;;;;;9.07;3.35;;;26.90;54.10;;;;;;4461745;32;20069;-71
2022/08/25 12:49:31;;;;;;;4.57;3.22;;;26.90;54.00;;;;;;4461866;32;20078;-71
2022/08/25 12:52:19;;;;;;;6.28;3.17;;;26.90;53.80;;;;;;4457738;32;20125;-71
2022/08/25 12:54:54;;;;;;;3.63;2.95;;;26.90;53.80;;;;;;4461689;32;20078;-71
2022/08/25 12:57:59;;;;;;;6.53;3.03;;;27.00;53.60;;;;;;4447480;32;20227;-71
2022/08/25 13:00:36;;;;;;;4.65;3.17;;;27.00;53.20;;;;;;4461406;32;20136;-71
2022/08/25 13:03:49;;;;;;;6.30;3.10;;;27.10;52.70;;;;;;4461144;32;20518;-71
2022/08/25 13:06:15;;;;;;;9.65;3.67;;;27.10;52.70;;;;;;4397802;32;20509;-72
2022/08/25 13:08:49;;;;;;;5.78;3.30;;;27.10;52.50;;;;;;4397951;32;20086;-72
2022/08/25 13:11:47;;;;;;;4.57;3.10;;;27.10;52.40;;;;;;4424845;32;20100;-72
2022/08/25 13:14:37;;;;;;;7.70;3.50;;;27.10;52.50;;;;;;4461166;32;20637;-72
2022/08/25 13:17:04;;;;;;;7.40;3.55;;;27.20;52.60;;;;;;4446985;32;20066;-72
2022/08/25 13:19:30;;;;;;;5.50;3.65;;;27.20;52.70;;;;;;4461205;32;20259;-72
2022/08/25 13:21:59;;;;;;;8.05;4.18;;;27.20;52.80;;;;;;4461023;32;20080;-72
2022/08/25 13:24:33;;;;;;;5.72;3.50;;;27.20;52.60;;;;;;4461004;32;20223;-72